sensor_id;sensor_type;location;lat;lon;timestamp;P1;durP1;ratioP1;P2;durP2;ratioP2
28009;SDS011;15334;49.494;8.410;2023-09-19T00:02:14;2.33;;;0.82;;
28009;SDS011;15334;49.494;8.410;2023-09-19T00:04:42;3.13;;;0.90;;
28009;SDS011;15334;49.494;8.410;2023-09-19T00:07:11;1.88;;;0.88;;
28009;SDS011;15334;49.494;8.410;2023-09-19T00:09:40;9.38;;;1.10;;
28009;SDS011;15334;49.494;8.410;2023-09-19T00:12:10;3.90;;;1.75;;
28009;SDS011;15334;49.494;8.410;2023-09-19T00:14:39;3.25;;;1.20;;
28009;SDS011;15334;49.494;8.410;2023-09-19T00:17:07;3.90;;;1.00;;
28009;SDS011;15334;49.494;8.410;2023-09-19T00:19:37;2.05;;;0.90;;
28009;SDS011;15334;49.494;8.410;2023-09-19T00:22:05;1.73;;;0.90;;
28009;SDS011;15334;49.494;8.410;2023-09-19T00:24:33;2.55;;;0.88;;
28009;SDS011;15334;49.494;8.410;2023-09-19T00:27:01;1.85;;;0.82;;
28009;SDS011;15334;49.494;8.410;2023-09-19T00:29:30;2.58;;;0.95;;
28009;SDS011;15334;49.494;8.410;2023-09-19T00:31:59;3.30;;;1.02;;
28009;SDS011;15334;49.494;8.410;2023-09-19T00:34:27;1.50;;;0.82;;
28009;SDS011;15334;49.494;8.410;2023-09-19T00:36:57;2.47;;;0.95;;
28009;SDS011;15334;49.494;8.410;2023-09-19T00:39:25;4.60;;;1.13;;
28009;SDS011;15334;49.494;8.410;2023-09-19T00:41:57;2.33;;;1.00;;
28009;SDS011;15334;49.494;8.410;2023-09-19T00:44:31;2.05;;;0.88;;
28009;SDS011;15334;49.494;8.410;2023-09-19T00:47:00;3.15;;;1.13;;
28009;SDS011;15334;49.494;8.410;2023-09-19T00:49:29;2.15;;;1.17;;
28009;SDS011;15334;49.494;8.410;2023-09-19T00:52:00;3.47;;;1.25;;
28009;SDS011;15334;49.494;8.410;2023-09-19T00:54:31;3.78;;;1.30;;
28009;SDS011;15334;49.494;8.410;2023-09-19T00:57:00;2.80;;;1.58;;
28009;SDS011;15334;49.494;8.410;2023-09-19T00:59:28;4.82;;;1.10;;
28009;SDS011;15334;49.494;8.410;2023-09-19T01:01:58;2.70;;;1.10;;
28009;SDS011;15334;49.494;8.410;2023-09-19T01:04:26;1.60;;;0.95;;
28009;SDS011;15334;49.494;8.410;2023-09-19T01:06:55;2.22;;;0.90;;
28009;SDS011;15334;49.494;8.410;2023-09-19T01:09:25;5.82;;;1.17;;
28009;SDS011;15334;49.494;8.410;2023-09-19T01:11:56;1.80;;;1.17;;
28009;SDS011;15334;49.494;8.410;2023-09-19T01:14:29;2.50;;;0.93;;
28009;SDS011;15334;49.494;8.410;2023-09-19T01:17:05;5.00;;;1.23;;
28009;SDS011;15334;49.494;8.410;2023-09-19T01:19:53;2.38;;;1.13;;
28009;SDS011;15334;49.494;8.410;2023-09-19T01:22:46;3.45;;;1.00;;
28009;SDS011;15334;49.494;8.410;2023-09-19T01:25:31;3.70;;;1.25;;
28009;SDS011;15334;49.494;8.410;2023-09-19T01:28:25;3.20;;;1.20;;
28009;SDS011;15334;49.494;8.410;2023-09-19T01:31:06;2.45;;;1.10;;
28009;SDS011;15334;49.494;8.410;2023-09-19T01:33:54;5.88;;;1.52;;
28009;SDS011;15334;49.494;8.410;2023-09-19T01:36:27;2.63;;;1.13;;
28009;SDS011;15334;49.494;8.410;2023-09-19T01:38:57;3.90;;;1.45;;
28009;SDS011;15334;49.494;8.410;2023-09-19T01:41:30;2.80;;;1.00;;
28009;SDS011;15334;49.494;8.410;2023-09-19T01:44:06;4.70;;;1.45;;
28009;SDS011;15334;49.494;8.410;2023-09-19T01:46:40;2.75;;;1.25;;
28009;SDS011;15334;49.494;8.410;2023-09-19T01:49:13;7.35;;;1.90;;
28009;SDS011;15334;49.494;8.410;2023-09-19T01:51:51;3.78;;;1.17;;
28009;SDS011;15334;49.494;8.410;2023-09-19T01:54:31;3.28;;;1.63;;
28009;SDS011;15334;49.494;8.410;2023-09-19T01:57:06;2.92;;;1.17;;
28009;SDS011;15334;49.494;8.410;2023-09-19T01:59:37;2.85;;;1.10;;
28009;SDS011;15334;49.494;8.410;2023-09-19T02:02:14;3.03;;;1.20;;
28009;SDS011;15334;49.494;8.410;2023-09-19T02:04:44;2.85;;;1.10;;
28009;SDS011;15334;49.494;8.410;2023-09-19T02:07:12;4.93;;;1.40;;
28009;SDS011;15334;49.494;8.410;2023-09-19T02:09:43;4.50;;;1.08;;
28009;SDS011;15334;49.494;8.410;2023-09-19T02:12:11;3.67;;;1.35;;
28009;SDS011;15334;49.494;8.410;2023-09-19T02:14:39;1.90;;;1.20;;
28009;SDS011;15334;49.494;8.410;2023-09-19T02:17:07;4.97;;;1.40;;
28009;SDS011;15334;49.494;8.410;2023-09-19T02:19:39;4.03;;;1.48;;
28009;SDS011;15334;49.494;8.410;2023-09-19T02:22:07;3.33;;;1.30;;
28009;SDS011;15334;49.494;8.410;2023-09-19T02:24:37;4.10;;;1.45;;
28009;SDS011;15334;49.494;8.410;2023-09-19T02:27:05;4.22;;;1.17;;
28009;SDS011;15334;49.494;8.410;2023-09-19T02:29:34;1.45;;;1.00;;
28009;SDS011;15334;49.494;8.410;2023-09-19T02:32:02;1.15;;;0.88;;
28009;SDS011;15334;49.494;8.410;2023-09-19T02:34:31;3.47;;;1.17;;
28009;SDS011;15334;49.494;8.410;2023-09-19T02:37:00;2.20;;;1.20;;
28009;SDS011;15334;49.494;8.410;2023-09-19T02:39:31;4.63;;;1.67;;
28009;SDS011;15334;49.494;8.410;2023-09-19T02:41:59;4.38;;;1.40;;
28009;SDS011;15334;49.494;8.410;2023-09-19T02:44:30;3.67;;;1.48;;
28009;SDS011;15334;49.494;8.410;2023-09-19T02:46:59;3.10;;;1.30;;
28009;SDS011;15334;49.494;8.410;2023-09-19T02:49:27;3.65;;;1.63;;
28009;SDS011;15334;49.494;8.410;2023-09-19T02:51:55;3.20;;;1.50;;
28009;SDS011;15334;49.494;8.410;2023-09-19T02:54:26;2.53;;;1.23;;
28009;SDS011;15334;49.494;8.410;2023-09-19T02:56:54;4.65;;;1.40;;
28009;SDS011;15334;49.494;8.410;2023-09-19T02:59:23;2.75;;;1.45;;
28009;SDS011;15334;49.494;8.410;2023-09-19T03:01:51;3.38;;;1.73;;
28009;SDS011;15334;49.494;8.410;2023-09-19T03:04:21;4.15;;;1.70;;
28009;SDS011;15334;49.494;8.410;2023-09-19T03:06:49;2.55;;;1.48;;
28009;SDS011;15334;49.494;8.410;2023-09-19T03:09:17;2.70;;;1.50;;
28009;SDS011;15334;49.494;8.410;2023-09-19T03:11:47;3.20;;;1.77;;
28009;SDS011;15334;49.494;8.410;2023-09-19T03:14:16;7.82;;;2.17;;
28009;SDS011;15334;49.494;8.410;2023-09-19T03:16:46;3.72;;;2.22;;
28009;SDS011;15334;49.494;8.410;2023-09-19T03:19:14;4.63;;;1.77;;
28009;SDS011;15334;49.494;8.410;2023-09-19T03:21:42;3.60;;;1.95;;
28009;SDS011;15334;49.494;8.410;2023-09-19T03:24:10;4.93;;;2.00;;
28009;SDS011;15334;49.494;8.410;2023-09-19T03:26:38;5.20;;;1.90;;
28009;SDS011;15334;49.494;8.410;2023-09-19T03:29:08;6.45;;;2.05;;
28009;SDS011;15334;49.494;8.410;2023-09-19T03:31:37;6.70;;;2.85;;
28009;SDS011;15334;49.494;8.410;2023-09-19T03:34:05;4.55;;;2.47;;
28009;SDS011;15334;49.494;8.410;2023-09-19T03:36:34;6.38;;;2.28;;
28009;SDS011;15334;49.494;8.410;2023-09-19T03:39:03;4.30;;;2.35;;
28009;SDS011;15334;49.494;8.410;2023-09-19T03:41:31;5.38;;;2.30;;
28009;SDS011;15334;49.494;8.410;2023-09-19T03:44:02;9.32;;;2.33;;
28009;SDS011;15334;49.494;8.410;2023-09-19T03:46:32;5.75;;;2.50;;
28009;SDS011;15334;49.494;8.410;2023-09-19T03:49:02;6.45;;;3.53;;
28009;SDS011;15334;49.494;8.410;2023-09-19T03:51:30;4.78;;;2.50;;
28009;SDS011;15334;49.494;8.410;2023-09-19T03:54:00;5.25;;;2.55;;
28009;SDS011;15334;49.494;8.410;2023-09-19T03:56:29;5.35;;;2.40;;
28009;SDS011;15334;49.494;8.410;2023-09-19T03:58:57;4.38;;;2.30;;
28009;SDS011;15334;49.494;8.410;2023-09-19T04:01:25;3.95;;;2.35;;
28009;SDS011;15334;49.494;8.410;2023-09-19T04:03:55;7.07;;;2.70;;
28009;SDS011;15334;49.494;8.410;2023-09-19T04:06:24;6.72;;;2.45;;
28009;SDS011;15334;49.494;8.410;2023-09-19T04:09:11;5.40;;;2.30;;
28009;SDS011;15334;49.494;8.410;2023-09-19T04:11:39;6.03;;;2.65;;
28009;SDS011;15334;49.494;8.410;2023-09-19T04:14:07;6.70;;;2.75;;
28009;SDS011;15334;49.494;8.410;2023-09-19T04:16:35;6.20;;;2.28;;
28009;SDS011;15334;49.494;8.410;2023-09-19T04:19:05;7.05;;;2.25;;
28009;SDS011;15334;49.494;8.410;2023-09-19T04:21:33;3.90;;;2.03;;
28009;SDS011;15334;49.494;8.410;2023-09-19T04:24:01;4.20;;;2.05;;
28009;SDS011;15334;49.494;8.410;2023-09-19T04:26:30;4.28;;;2.45;;
28009;SDS011;15334;49.494;8.410;2023-09-19T04:28:59;5.25;;;2.30;;
28009;SDS011;15334;49.494;8.410;2023-09-19T04:31:27;6.00;;;2.28;;
28009;SDS011;15334;49.494;8.410;2023-09-19T04:33:55;3.90;;;2.00;;
28009;SDS011;15334;49.494;8.410;2023-09-19T04:36:27;4.65;;;1.95;;
28009;SDS011;15334;49.494;8.410;2023-09-19T04:39:01;5.63;;;2.42;;
28009;SDS011;15334;49.494;8.410;2023-09-19T04:41:33;4.50;;;2.10;;
28009;SDS011;15334;49.494;8.410;2023-09-19T04:44:03;4.45;;;2.28;;
28009;SDS011;15334;49.494;8.410;2023-09-19T04:46:31;3.90;;;2.20;;
28009;SDS011;15334;49.494;8.410;2023-09-19T04:49:00;8.05;;;2.25;;
28009;SDS011;15334;49.494;8.410;2023-09-19T04:51:29;5.80;;;2.05;;
28009;SDS011;15334;49.494;8.410;2023-09-19T04:54:00;5.35;;;2.47;;
28009;SDS011;15334;49.494;8.410;2023-09-19T04:56:29;5.25;;;2.20;;
28009;SDS011;15334;49.494;8.410;2023-09-19T04:58:58;9.30;;;2.67;;
28009;SDS011;15334;49.494;8.410;2023-09-19T05:01:26;4.55;;;2.00;;
28009;SDS011;15334;49.494;8.410;2023-09-19T05:03:54;5.20;;;2.03;;
28009;SDS011;15334;49.494;8.410;2023-09-19T05:06:22;5.05;;;1.85;;
28009;SDS011;15334;49.494;8.410;2023-09-19T05:08:54;5.90;;;2.33;;
28009;SDS011;15334;49.494;8.410;2023-09-19T05:11:22;5.70;;;2.10;;
28009;SDS011;15334;49.494;8.410;2023-09-19T05:13:50;4.53;;;1.75;;
28009;SDS011;15334;49.494;8.410;2023-09-19T05:16:19;6.13;;;1.90;;
28009;SDS011;15334;49.494;8.410;2023-09-19T05:18:48;9.55;;;1.88;;
28009;SDS011;15334;49.494;8.410;2023-09-19T05:21:17;5.57;;;2.40;;
28009;SDS011;15334;49.494;8.410;2023-09-19T05:23:45;8.88;;;2.35;;
28009;SDS011;15334;49.494;8.410;2023-09-19T05:26:15;3.47;;;1.83;;
28009;SDS011;15334;49.494;8.410;2023-09-19T05:28:43;6.50;;;1.92;;
28009;SDS011;15334;49.494;8.410;2023-09-19T05:31:11;6.15;;;1.92;;
28009;SDS011;15334;49.494;8.410;2023-09-19T05:33:40;6.25;;;1.85;;
28009;SDS011;15334;49.494;8.410;2023-09-19T05:36:08;6.53;;;2.17;;
28009;SDS011;15334;49.494;8.410;2023-09-19T05:38:38;6.63;;;2.10;;
28009;SDS011;15334;49.494;8.410;2023-09-19T05:41:08;2.95;;;1.50;;
28009;SDS011;15334;49.494;8.410;2023-09-19T05:43:41;5.03;;;1.88;;
28009;SDS011;15334;49.494;8.410;2023-09-19T05:46:10;4.35;;;2.25;;
28009;SDS011;15334;49.494;8.410;2023-09-19T05:48:37;8.15;;;1.83;;
28009;SDS011;15334;49.494;8.410;2023-09-19T05:51:07;4.65;;;1.80;;
28009;SDS011;15334;49.494;8.410;2023-09-19T05:53:36;6.43;;;2.05;;
28009;SDS011;15334;49.494;8.410;2023-09-19T05:56:04;3.67;;;1.98;;
28009;SDS011;15334;49.494;8.410;2023-09-19T05:58:32;6.00;;;1.83;;
28009;SDS011;15334;49.494;8.410;2023-09-19T06:01:01;5.15;;;1.90;;
28009;SDS011;15334;49.494;8.410;2023-09-19T06:03:30;4.90;;;1.70;;
28009;SDS011;15334;49.494;8.410;2023-09-19T06:05:58;4.97;;;1.90;;
28009;SDS011;15334;49.494;8.410;2023-09-19T06:08:26;9.98;;;2.30;;
28009;SDS011;15334;49.494;8.410;2023-09-19T06:10:54;3.92;;;1.55;;
28009;SDS011;15334;49.494;8.410;2023-09-19T06:13:22;5.90;;;1.27;;
28009;SDS011;15334;49.494;8.410;2023-09-19T06:15:53;9.63;;;1.77;;
28009;SDS011;15334;49.494;8.410;2023-09-19T06:18:24;3.63;;;1.45;;
28009;SDS011;15334;49.494;8.410;2023-09-19T06:20:52;6.90;;;1.58;;
28009;SDS011;15334;49.494;8.410;2023-09-19T06:23:21;4.90;;;1.38;;
28009;SDS011;15334;49.494;8.410;2023-09-19T06:25:50;9.90;;;1.90;;
28009;SDS011;15334;49.494;8.410;2023-09-19T06:28:19;9.93;;;1.95;;
28009;SDS011;15334;49.494;8.410;2023-09-19T06:30:50;4.95;;;2.00;;
28009;SDS011;15334;49.494;8.410;2023-09-19T06:33:18;3.67;;;1.52;;
28009;SDS011;15334;49.494;8.410;2023-09-19T06:35:49;6.47;;;1.60;;
28009;SDS011;15334;49.494;8.410;2023-09-19T06:38:19;2.90;;;1.52;;
28009;SDS011;15334;49.494;8.410;2023-09-19T06:40:47;5.53;;;1.90;;
28009;SDS011;15334;49.494;8.410;2023-09-19T06:43:15;5.88;;;1.80;;
28009;SDS011;15334;49.494;8.410;2023-09-19T06:45:45;6.53;;;2.03;;
28009;SDS011;15334;49.494;8.410;2023-09-19T06:48:13;3.55;;;1.90;;
28009;SDS011;15334;49.494;8.410;2023-09-19T06:50:42;5.85;;;2.20;;
28009;SDS011;15334;49.494;8.410;2023-09-19T06:53:12;6.05;;;1.55;;
28009;SDS011;15334;49.494;8.410;2023-09-19T06:55:40;3.92;;;1.95;;
28009;SDS011;15334;49.494;8.410;2023-09-19T06:58:10;4.68;;;1.90;;
28009;SDS011;15334;49.494;8.410;2023-09-19T07:00:38;4.25;;;1.58;;
28009;SDS011;15334;49.494;8.410;2023-09-19T07:03:06;6.55;;;1.98;;
28009;SDS011;15334;49.494;8.410;2023-09-19T07:05:38;4.82;;;1.80;;
28009;SDS011;15334;49.494;8.410;2023-09-19T07:08:07;4.55;;;1.73;;
28009;SDS011;15334;49.494;8.410;2023-09-19T07:10:40;6.28;;;1.58;;
28009;SDS011;15334;49.494;8.410;2023-09-19T07:13:15;2.65;;;1.50;;
28009;SDS011;15334;49.494;8.410;2023-09-19T07:15:44;5.22;;;2.08;;
28009;SDS011;15334;49.494;8.410;2023-09-19T07:18:14;6.53;;;2.17;;
28009;SDS011;15334;49.494;8.410;2023-09-19T07:20:43;3.78;;;1.80;;
28009;SDS011;15334;49.494;8.410;2023-09-19T07:23:15;6.18;;;2.08;;
28009;SDS011;15334;49.494;8.410;2023-09-19T07:25:46;5.38;;;1.80;;
28009;SDS011;15334;49.494;8.410;2023-09-19T07:28:15;5.43;;;1.85;;
28009;SDS011;15334;49.494;8.410;2023-09-19T07:30:43;3.67;;;1.70;;
28009;SDS011;15334;49.494;8.410;2023-09-19T07:33:11;2.10;;;1.42;;
28009;SDS011;15334;49.494;8.410;2023-09-19T07:35:39;4.68;;;1.70;;
28009;SDS011;15334;49.494;8.410;2023-09-19T07:38:07;7.22;;;2.10;;
28009;SDS011;15334;49.494;8.410;2023-09-19T07:40:37;6.03;;;1.70;;
28009;SDS011;15334;49.494;8.410;2023-09-19T07:43:07;6.15;;;1.73;;
28009;SDS011;15334;49.494;8.410;2023-09-19T07:45:35;4.47;;;1.80;;
28009;SDS011;15334;49.494;8.410;2023-09-19T07:48:04;5.13;;;1.85;;
28009;SDS011;15334;49.494;8.410;2023-09-19T07:50:40;4.47;;;1.75;;
28009;SDS011;15334;49.494;8.410;2023-09-19T07:53:09;2.80;;;2.00;;
28009;SDS011;15334;49.494;8.410;2023-09-19T07:55:39;8.18;;;2.22;;
28009;SDS011;15334;49.494;8.410;2023-09-19T07:58:10;3.65;;;1.95;;
28009;SDS011;15334;49.494;8.410;2023-09-19T08:00:39;3.97;;;1.98;;
28009;SDS011;15334;49.494;8.410;2023-09-19T08:03:07;7.25;;;1.95;;
28009;SDS011;15334;49.494;8.410;2023-09-19T08:05:43;3.60;;;1.38;;
28009;SDS011;15334;49.494;8.410;2023-09-19T08:08:12;2.38;;;1.30;;
28009;SDS011;15334;49.494;8.410;2023-09-19T08:10:41;3.83;;;1.35;;
28009;SDS011;15334;49.494;8.410;2023-09-19T08:13:13;4.35;;;1.58;;
28009;SDS011;15334;49.494;8.410;2023-09-19T08:15:44;2.93;;;1.73;;
28009;SDS011;15334;49.494;8.410;2023-09-19T08:18:12;5.05;;;1.67;;
28009;SDS011;15334;49.494;8.410;2023-09-19T08:20:41;3.20;;;1.60;;
28009;SDS011;15334;49.494;8.410;2023-09-19T08:23:12;6.20;;;1.67;;
28009;SDS011;15334;49.494;8.410;2023-09-19T08:25:40;2.67;;;1.38;;
28009;SDS011;15334;49.494;8.410;2023-09-19T08:28:08;4.68;;;1.50;;
28009;SDS011;15334;49.494;8.410;2023-09-19T08:30:41;6.53;;;1.57;;
28009;SDS011;15334;49.494;8.410;2023-09-19T08:33:09;3.55;;;1.70;;
28009;SDS011;15334;49.494;8.410;2023-09-19T08:35:37;2.95;;;1.73;;
28009;SDS011;15334;49.494;8.410;2023-09-19T08:38:07;3.33;;;1.65;;
28009;SDS011;15334;49.494;8.410;2023-09-19T08:40:37;5.95;;;1.83;;
28009;SDS011;15334;49.494;8.410;2023-09-19T08:43:06;3.28;;;1.90;;
28009;SDS011;15334;49.494;8.410;2023-09-19T08:45:35;3.53;;;1.55;;
28009;SDS011;15334;49.494;8.410;2023-09-19T08:48:08;6.20;;;2.35;;
28009;SDS011;15334;49.494;8.410;2023-09-19T08:50:47;4.78;;;1.85;;
28009;SDS011;15334;49.494;8.410;2023-09-19T08:53:19;5.53;;;2.45;;
28009;SDS011;15334;49.494;8.410;2023-09-19T08:55:54;5.88;;;2.45;;
28009;SDS011;15334;49.494;8.410;2023-09-19T08:58:25;5.30;;;2.10;;
28009;SDS011;15334;49.494;8.410;2023-09-19T09:00:56;3.28;;;2.22;;
28009;SDS011;15334;49.494;8.410;2023-09-19T09:03:30;5.70;;;2.10;;
28009;SDS011;15334;49.494;8.410;2023-09-19T09:06:01;3.28;;;1.73;;
28009;SDS011;15334;49.494;8.410;2023-09-19T09:08:30;4.32;;;2.10;;
28009;SDS011;15334;49.494;8.410;2023-09-19T09:10:59;7.93;;;1.98;;
28009;SDS011;15334;49.494;8.410;2023-09-19T09:13:27;5.10;;;1.85;;
28009;SDS011;15334;49.494;8.410;2023-09-19T09:15:55;7.00;;;1.58;;
28009;SDS011;15334;49.494;8.410;2023-09-19T09:18:25;3.55;;;1.70;;
28009;SDS011;15334;49.494;8.410;2023-09-19T09:21:12;4.07;;;1.60;;
28009;SDS011;15334;49.494;8.410;2023-09-19T09:23:59;3.28;;;1.65;;
28009;SDS011;15334;49.494;8.410;2023-09-19T09:26:45;7.75;;;1.98;;
28009;SDS011;15334;49.494;8.410;2023-09-19T09:29:14;4.18;;;1.80;;
28009;SDS011;15334;49.494;8.410;2023-09-19T09:31:46;4.30;;;1.52;;
28009;SDS011;15334;49.494;8.410;2023-09-19T09:34:15;3.63;;;1.70;;
28009;SDS011;15334;49.494;8.410;2023-09-19T09:36:45;4.13;;;1.60;;
28009;SDS011;15334;49.494;8.410;2023-09-19T09:39:28;7.20;;;2.00;;
28009;SDS011;15334;49.494;8.410;2023-09-19T09:41:58;6.57;;;2.05;;
28009;SDS011;15334;49.494;8.410;2023-09-19T09:44:26;6.65;;;2.17;;
28009;SDS011;15334;49.494;8.410;2023-09-19T09:46:58;5.63;;;2.28;;
28009;SDS011;15334;49.494;8.410;2023-09-19T09:49:47;5.32;;;1.95;;
28009;SDS011;15334;49.494;8.410;2023-09-19T09:52:22;4.63;;;1.98;;
28009;SDS011;15334;49.494;8.410;2023-09-19T09:54:58;4.93;;;1.75;;
28009;SDS011;15334;49.494;8.410;2023-09-19T09:57:28;3.78;;;1.80;;
28009;SDS011;15334;49.494;8.410;2023-09-19T09:59:56;3.40;;;1.70;;
28009;SDS011;15334;49.494;8.410;2023-09-19T10:02:42;3.95;;;1.70;;
28009;SDS011;15334;49.494;8.410;2023-09-19T10:05:13;5.73;;;1.60;;
28009;SDS011;15334;49.494;8.410;2023-09-19T10:07:50;3.90;;;1.60;;
28009;SDS011;15334;49.494;8.410;2023-09-19T10:13:20;4.15;;;1.48;;
28009;SDS011;15334;49.494;8.410;2023-09-19T10:15:50;4.15;;;1.42;;
28009;SDS011;15334;49.494;8.410;2023-09-19T10:20:50;4.22;;;1.30;;
28009;SDS011;15334;49.494;8.410;2023-09-19T10:23:20;4.57;;;1.20;;
28009;SDS011;15334;49.494;8.410;2023-09-19T10:25:50;3.03;;;1.60;;
28009;SDS011;15334;49.494;8.410;2023-09-19T10:28:20;2.45;;;1.08;;
28009;SDS011;15334;49.494;8.410;2023-09-19T10:30:50;3.63;;;1.17;;
28009;SDS011;15334;49.494;8.410;2023-09-19T10:33:20;5.70;;;0.98;;
28009;SDS011;15334;49.494;8.410;2023-09-19T10:35:50;4.50;;;1.35;;
28009;SDS011;15334;49.494;8.410;2023-09-19T10:38:22;2.85;;;1.27;;
28009;SDS011;15334;49.494;8.410;2023-09-19T10:40:52;4.45;;;1.35;;
28009;SDS011;15334;49.494;8.410;2023-09-19T10:43:23;2.95;;;0.98;;
28009;SDS011;15334;49.494;8.410;2023-09-19T10:45:53;2.72;;;0.93;;
28009;SDS011;15334;49.494;8.410;2023-09-19T10:48:24;2.70;;;1.20;;
28009;SDS011;15334;49.494;8.410;2023-09-19T10:50:57;1.98;;;0.93;;
28009;SDS011;15334;49.494;8.410;2023-09-19T10:53:42;4.78;;;1.05;;
28009;SDS011;15334;49.494;8.410;2023-09-19T10:56:16;2.63;;;0.90;;
28009;SDS011;15334;49.494;8.410;2023-09-19T10:58:48;2.30;;;0.77;;
28009;SDS011;15334;49.494;8.410;2023-09-19T11:01:17;2.38;;;1.42;;
28009;SDS011;15334;49.494;8.410;2023-09-19T11:03:47;3.55;;;1.10;;
28009;SDS011;15334;49.494;8.410;2023-09-19T11:09:01;4.47;;;1.10;;
28009;SDS011;15334;49.494;8.410;2023-09-19T11:11:44;2.08;;;0.77;;
28009;SDS011;15334;49.494;8.410;2023-09-19T11:14:30;3.67;;;1.10;;
28009;SDS011;15334;49.494;8.410;2023-09-19T11:20:21;4.97;;;0.95;;
28009;SDS011;15334;49.494;8.410;2023-09-19T11:26:05;3.38;;;0.93;;
28009;SDS011;15334;49.494;8.410;2023-09-19T11:29:25;5.00;;;0.70;;
28009;SDS011;15334;49.494;8.410;2023-09-19T11:31:55;5.00;;;1.00;;
28009;SDS011;15334;49.494;8.410;2023-09-19T11:34:38;3.88;;;1.00;;
28009;SDS011;15334;49.494;8.410;2023-09-19T11:40:29;3.35;;;0.90;;
28009;SDS011;15334;49.494;8.410;2023-09-19T11:42:58;1.55;;;0.88;;
28009;SDS011;15334;49.494;8.410;2023-09-19T11:48:33;1.92;;;0.93;;
28009;SDS011;15334;49.494;8.410;2023-09-19T11:51:11;4.55;;;0.93;;
28009;SDS011;15334;49.494;8.410;2023-09-19T11:53:46;5.10;;;1.08;;
28009;SDS011;15334;49.494;8.410;2023-09-19T11:56:16;2.35;;;1.08;;
28009;SDS011;15334;49.494;8.410;2023-09-19T11:58:46;5.85;;;1.13;;
28009;SDS011;15334;49.494;8.410;2023-09-19T12:01:22;3.80;;;0.80;;
28009;SDS011;15334;49.494;8.410;2023-09-19T12:03:53;1.95;;;0.70;;
28009;SDS011;15334;49.494;8.410;2023-09-19T12:06:24;5.68;;;1.13;;
28009;SDS011;15334;49.494;8.410;2023-09-19T12:08:53;2.47;;;0.80;;
28009;SDS011;15334;49.494;8.410;2023-09-19T12:11:23;5.03;;;1.30;;
28009;SDS011;15334;49.494;8.410;2023-09-19T12:13:56;2.33;;;1.05;;
28009;SDS011;15334;49.494;8.410;2023-09-19T12:18:57;3.00;;;1.00;;
28009;SDS011;15334;49.494;8.410;2023-09-19T12:21:44;3.70;;;1.02;;
28009;SDS011;15334;49.494;8.410;2023-09-19T12:24:21;2.10;;;0.85;;
28009;SDS011;15334;49.494;8.410;2023-09-19T12:26:49;3.90;;;1.08;;
28009;SDS011;15334;49.494;8.410;2023-09-19T12:29:21;2.00;;;0.80;;
28009;SDS011;15334;49.494;8.410;2023-09-19T12:31:51;2.67;;;0.90;;
28009;SDS011;15334;49.494;8.410;2023-09-19T12:34:22;2.58;;;1.00;;
28009;SDS011;15334;49.494;8.410;2023-09-19T12:37:03;2.13;;;0.98;;
28009;SDS011;15334;49.494;8.410;2023-09-19T12:39:38;4.60;;;0.82;;
28009;SDS011;15334;49.494;8.410;2023-09-19T12:42:08;5.05;;;0.93;;
28009;SDS011;15334;49.494;8.410;2023-09-19T12:44:42;4.55;;;1.38;;
28009;SDS011;15334;49.494;8.410;2023-09-19T12:47:13;2.33;;;0.80;;
28009;SDS011;15334;49.494;8.410;2023-09-19T12:52:39;4.55;;;1.10;;
28009;SDS011;15334;49.494;8.410;2023-09-19T12:55:19;3.47;;;1.20;;
28009;SDS011;15334;49.494;8.410;2023-09-19T12:58:03;1.77;;;0.68;;
28009;SDS011;15334;49.494;8.410;2023-09-19T13:00:38;1.98;;;0.85;;
28009;SDS011;15334;49.494;8.410;2023-09-19T13:05:49;1.52;;;0.95;;
28009;SDS011;15334;49.494;8.410;2023-09-19T13:08:21;1.55;;;0.75;;
28009;SDS011;15334;49.494;8.410;2023-09-19T13:11:02;2.38;;;0.90;;
28009;SDS011;15334;49.494;8.410;2023-09-19T13:13:37;2.38;;;1.10;;
28009;SDS011;15334;49.494;8.410;2023-09-19T13:16:07;2.75;;;0.75;;
28009;SDS011;15334;49.494;8.410;2023-09-19T13:18:42;1.70;;;0.85;;
28009;SDS011;15334;49.494;8.410;2023-09-19T13:21:12;1.45;;;0.80;;
28009;SDS011;15334;49.494;8.410;2023-09-19T13:23:50;3.97;;;1.20;;
28009;SDS011;15334;49.494;8.410;2023-09-19T13:26:18;3.80;;;0.95;;
28009;SDS011;15334;49.494;8.410;2023-09-19T13:28:46;2.50;;;0.98;;
28009;SDS011;15334;49.494;8.410;2023-09-19T13:31:17;3.05;;;0.98;;
28009;SDS011;15334;49.494;8.410;2023-09-19T13:33:46;1.98;;;0.60;;
28009;SDS011;15334;49.494;8.410;2023-09-19T13:36:16;4.47;;;1.02;;
28009;SDS011;15334;49.494;8.410;2023-09-19T13:38:45;3.47;;;1.00;;
28009;SDS011;15334;49.494;8.410;2023-09-19T13:41:15;3.22;;;1.10;;
28009;SDS011;15334;49.494;8.410;2023-09-19T13:43:43;2.28;;;0.98;;
28009;SDS011;15334;49.494;8.410;2023-09-19T13:46:14;2.45;;;0.90;;
28009;SDS011;15334;49.494;8.410;2023-09-19T13:48:45;3.83;;;1.02;;
28009;SDS011;15334;49.494;8.410;2023-09-19T13:51:13;3.05;;;1.17;;
28009;SDS011;15334;49.494;8.410;2023-09-19T13:53:41;3.22;;;1.00;;
28009;SDS011;15334;49.494;8.410;2023-09-19T13:56:10;3.85;;;1.17;;
28009;SDS011;15334;49.494;8.410;2023-09-19T13:58:38;1.85;;;0.95;;
28009;SDS011;15334;49.494;8.410;2023-09-19T14:01:08;1.85;;;1.00;;
28009;SDS011;15334;49.494;8.410;2023-09-19T14:03:39;2.00;;;1.10;;
28009;SDS011;15334;49.494;8.410;2023-09-19T14:06:14;2.75;;;1.00;;
28009;SDS011;15334;49.494;8.410;2023-09-19T14:08:42;2.22;;;0.90;;
28009;SDS011;15334;49.494;8.410;2023-09-19T14:11:10;1.85;;;0.70;;
28009;SDS011;15334;49.494;8.410;2023-09-19T14:13:39;2.78;;;0.98;;
28009;SDS011;15334;49.494;8.410;2023-09-19T14:16:07;2.08;;;1.00;;
28009;SDS011;15334;49.494;8.410;2023-09-19T14:18:36;3.83;;;1.15;;
28009;SDS011;15334;49.494;8.410;2023-09-19T14:21:04;3.15;;;0.90;;
28009;SDS011;15334;49.494;8.410;2023-09-19T14:23:35;2.38;;;0.93;;
28009;SDS011;15334;49.494;8.410;2023-09-19T14:26:04;2.28;;;0.95;;
28009;SDS011;15334;49.494;8.410;2023-09-19T14:28:33;3.30;;;0.77;;
28009;SDS011;15334;49.494;8.410;2023-09-19T14:31:04;3.10;;;1.00;;
28009;SDS011;15334;49.494;8.410;2023-09-19T14:33:33;2.72;;;0.98;;
28009;SDS011;15334;49.494;8.410;2023-09-19T14:36:03;2.00;;;0.80;;
28009;SDS011;15334;49.494;8.410;2023-09-19T14:38:32;1.33;;;0.70;;
28009;SDS011;15334;49.494;8.410;2023-09-19T14:41:02;1.52;;;0.82;;
28009;SDS011;15334;49.494;8.410;2023-09-19T14:43:31;1.92;;;0.90;;
28009;SDS011;15334;49.494;8.410;2023-09-19T14:46:02;1.77;;;1.00;;
28009;SDS011;15334;49.494;8.410;2023-09-19T14:48:30;2.25;;;1.00;;
28009;SDS011;15334;49.494;8.410;2023-09-19T14:51:01;1.70;;;0.80;;
28009;SDS011;15334;49.494;8.410;2023-09-19T14:53:30;3.20;;;0.98;;
28009;SDS011;15334;49.494;8.410;2023-09-19T14:55:59;3.03;;;1.38;;
28009;SDS011;15334;49.494;8.410;2023-09-19T14:58:30;2.15;;;0.80;;
28009;SDS011;15334;49.494;8.410;2023-09-19T15:01:03;2.22;;;0.93;;
28009;SDS011;15334;49.494;8.410;2023-09-19T15:06:26;2.08;;;0.93;;
28009;SDS011;15334;49.494;8.410;2023-09-19T15:08:54;2.55;;;1.00;;
28009;SDS011;15334;49.494;8.410;2023-09-19T15:11:26;1.92;;;0.77;;
28009;SDS011;15334;49.494;8.410;2023-09-19T15:13:56;3.67;;;0.77;;
28009;SDS011;15334;49.494;8.410;2023-09-19T15:16:25;5.88;;;1.20;;
28009;SDS011;15334;49.494;8.410;2023-09-19T15:18:53;1.42;;;0.63;;
28009;SDS011;15334;49.494;8.410;2023-09-19T15:21:21;0.93;;;0.80;;
28009;SDS011;15334;49.494;8.410;2023-09-19T15:23:53;1.35;;;0.82;;
28009;SDS011;15334;49.494;8.410;2023-09-19T15:26:36;1.90;;;1.00;;
28009;SDS011;15334;49.494;8.410;2023-09-19T15:29:07;1.80;;;0.80;;
28009;SDS011;15334;49.494;8.410;2023-09-19T15:31:35;3.10;;;0.90;;
28009;SDS011;15334;49.494;8.410;2023-09-19T15:34:04;3.40;;;0.80;;
28009;SDS011;15334;49.494;8.410;2023-09-19T15:36:33;2.50;;;0.98;;
28009;SDS011;15334;49.494;8.410;2023-09-19T15:39:03;2.58;;;1.02;;
28009;SDS011;15334;49.494;8.410;2023-09-19T15:41:33;1.98;;;0.80;;
28009;SDS011;15334;49.494;8.410;2023-09-19T15:44:04;1.38;;;0.98;;